Time;durP1;ratioP1;P1;durP2;ratioP2;P2;SDS_P1;SDS_P2;PMS_P1;PMS_P2;Temp;Humidity;BMP_temperature;BMP_pressure;BME280_temperature;BME280_humidity;BME280_pressure;Samples;Min_cycle;Max_cycle;Signal;HPM_P1;HPM_P2
2021/05/23 00:01:12;;;;;;;13.50;10.37;;;11.50;99.90;;;;;;5048420;28;20237;-50
2021/05/23 00:03:39;;;;;;;16.63;10.93;;;11.30;99.90;;;;;;5050341;28;20224;-50
2021/05/23 00:06:06;;;;;;;13.50;10.20;;;11.20;99.90;;;;;;5047355;28;20205;-50
2021/05/23 00:08:33;;;;;;;16.77;12.00;;;11.30;99.90;;;;;;5049305;28;20581;-50
2021/05/23 00:11:07;;;;;;;15.60;10.50;;;11.30;99.90;;;;;;5048103;28;20289;-50
2021/05/23 00:13:40;;;;;;;15.43;11.57;;;11.20;99.90;;;;;;5048448;28;20335;-50
2021/05/23 00:16:13;;;;;;;14.43;10.23;;;11.10;99.90;;;;;;5048682;28;20317;-50
2021/05/23 00:18:43;;;;;;;17.20;11.80;;;11.30;99.90;;;;;;5047648;28;20289;-50
2021/05/23 00:21:16;;;;;;;17.83;12.67;;;11.30;99.90;;;;;;5047926;28;20380;-49
2021/05/23 00:23:43;;;;;;;19.27;12.70;;;11.30;99.90;;;;;;5044888;28;20196;-49
2021/05/23 00:26:11;;;;;;;18.43;12.77;;;11.30;99.90;;;;;;5049025;28;20728;-50
2021/05/23 00:28:38;;;;;;;16.57;12.00;;;11.30;99.90;;;;;;5047693;28;20632;-50
2021/05/23 00:31:06;;;;;;;17.67;13.13;;;11.20;99.90;;;;;;5048543;28;20323;-50
2021/05/23 00:33:33;;;;;;;18.37;12.63;;;11.20;99.90;;;;;;5044382;28;20734;-49
2021/05/23 00:36:00;;;;;;;19.10;13.33;;;11.20;99.90;;;;;;5047954;28;20344;-50
2021/05/23 00:38:27;;;;;;;16.70;12.33;;;11.30;99.90;;;;;;5046417;28;20278;-51
2021/05/23 00:40:54;;;;;;;20.90;14.10;;;11.40;99.90;;;;;;5048267;28;20425;-50
2021/05/23 00:43:21;;;;;;;20.67;13.97;;;11.30;99.90;;;;;;5048162;28;20568;-50
2021/05/23 00:45:49;;;;;;;21.63;14.10;;;11.40;99.90;;;;;;5050413;28;20195;-50
2021/05/23 00:48:18;;;;;;;19.20;13.80;;;11.40;99.90;;;;;;5047229;28;20212;-49
2021/05/23 00:50:45;;;;;;;19.70;12.80;;;11.40;99.90;;;;;;5049323;28;20630;-50
2021/05/23 00:53:12;;;;;;;21.03;13.30;;;11.30;99.90;;;;;;5044944;28;20237;-50
2021/05/23 00:55:39;;;;;;;19.67;14.27;;;11.30;99.90;;;;;;5047564;28;20240;-50
2021/05/23 00:58:07;;;;;;;24.83;15.33;;;11.40;99.90;;;;;;5049153;28;20331;-50
2021/05/23 01:00:40;;;;;;;20.83;13.97;;;11.20;99.90;;;;;;5049509;28;20207;-50
2021/05/23 01:03:45;;;;;;;23.57;15.33;;;11.30;99.90;;;;;;5047600;28;20664;-49
2021/05/23 01:06:12;;;;;;;21.67;14.97;;;11.30;99.90;;;;;;5048684;28;20208;-50
2021/05/23 01:08:39;;;;;;;25.70;16.47;;;11.30;99.90;;;;;;5044813;28;20330;-49
2021/05/23 01:11:08;;;;;;;25.07;16.00;;;11.40;99.90;;;;;;5050151;28;20631;-50
2021/05/23 01:13:38;;;;;;;22.00;14.80;;;11.40;99.90;;;;;;5048677;28;20239;-50
2021/05/23 01:16:44;;;;;;;23.77;16.17;;;11.50;99.90;;;;;;5047442;28;20579;-51
2021/05/23 01:19:32;;;;;;;24.00;15.47;;;11.50;99.90;;;;;;5048633;28;20227;-51
2021/05/23 01:22:27;;;;;;;25.27;16.50;;;11.50;99.90;;;;;;5045032;28;20270;-50
2021/05/23 01:25:09;;;;;;;30.90;17.50;;;11.40;99.90;;;;;;5013661;28;20211;-50
2021/05/23 01:27:38;;;;;;;26.57;16.43;;;11.30;99.90;;;;;;5050704;28;21067;-50
2021/05/23 01:30:10;;;;;;;28.30;16.93;;;11.30;99.90;;;;;;5049994;28;20747;-50
2021/05/23 01:32:37;;;;;;;26.23;17.67;;;11.30;99.90;;;;;;5046930;28;20255;-50
2021/05/23 01:35:08;;;;;;;28.77;18.80;;;11.20;99.90;;;;;;5045729;28;20284;-50
2021/05/23 01:37:36;;;;;;;26.27;17.37;;;11.30;99.90;;;;;;5046953;28;20211;-51
2021/05/23 01:40:04;;;;;;;25.37;16.50;;;11.10;99.90;;;;;;5045413;28;20903;-50
2021/05/23 01:42:32;;;;;;;27.57;16.60;;;11.20;99.90;;;;;;5046043;28;20688;-50
2021/05/23 01:45:00;;;;;;;25.43;17.07;;;11.10;99.90;;;;;;5047242;28;20608;-50
2021/05/23 01:47:27;;;;;;;26.73;16.70;;;11.10;99.90;;;;;;5044562;28;20231;-50
2021/05/23 01:49:55;;;;;;;24.17;16.77;;;11.10;99.90;;;;;;5048141;28;20652;-50
2021/05/23 01:52:22;;;;;;;30.23;17.40;;;11.10;99.90;;;;;;5044508;28;20699;-50
2021/05/23 01:54:48;;;;;;;25.93;17.87;;;11.00;99.90;;;;;;5044747;28;20260;-50
2021/05/23 01:57:15;;;;;;;28.13;17.37;;;11.00;99.90;;;;;;5048383;28;20627;-50
2021/05/23 01:59:42;;;;;;;28.43;17.10;;;11.00;99.90;;;;;;5051583;28;20321;-50
2021/05/23 02:02:09;;;;;;;26.47;17.50;;;11.10;99.90;;;;;;5048149;28;20334;-51
2021/05/23 02:04:36;;;;;;;26.33;16.80;;;11.00;99.90;;;;;;5054573;28;20223;-50
2021/05/23 02:07:03;;;;;;;28.07;17.83;;;10.90;99.90;;;;;;5050694;28;20223;-51
2021/05/23 02:09:30;;;;;;;25.97;17.10;;;11.00;99.90;;;;;;5053635;28;20698;-50
2021/05/23 02:11:57;;;;;;;29.97;19.17;;;11.00;99.90;;;;;;5047953;28;20203;-51
2021/05/23 02:14:24;;;;;;;28.67;18.87;;;11.10;99.90;;;;;;5054230;28;20234;-51
2021/05/23 02:16:57;;;;;;;26.53;17.20;;;11.00;99.90;;;;;;5051309;28;20252;-50
2021/05/23 02:19:24;;;;;;;29.87;17.37;;;11.00;99.90;;;;;;5051170;28;20248;-51
2021/05/23 02:21:51;;;;;;;29.00;18.60;;;11.10;99.90;;;;;;5049593;28;20242;-50
2021/05/23 02:24:17;;;;;;;27.67;17.70;;;11.00;99.90;;;;;;5050901;28;20203;-50
2021/05/23 02:26:44;;;;;;;27.63;17.03;;;11.00;99.90;;;;;;5050049;28;20297;-50
2021/05/23 02:29:11;;;;;;;25.50;17.17;;;11.00;99.90;;;;;;5051372;28;20223;-50
2021/05/23 02:31:39;;;;;;;26.70;17.87;;;11.10;99.90;;;;;;5049395;28;20608;-50
2021/05/23 02:34:06;;;;;;;28.97;19.07;;;11.00;99.90;;;;;;5052892;28;20243;-50
2021/05/23 02:36:33;;;;;;;27.50;16.90;;;10.90;99.90;;;;;;5054376;28;20800;-50
2021/05/23 02:38:59;;;;;;;30.27;18.97;;;10.80;99.90;;;;;;5053838;28;20579;-50
2021/05/23 02:41:26;;;;;;;29.90;16.90;;;10.90;99.90;;;;;;5051503;28;20308;-50
2021/05/23 02:43:53;;;;;;;28.80;16.87;;;11.00;99.90;;;;;;5050819;28;20302;-50
2021/05/23 02:46:20;;;;;;;30.47;17.87;;;11.00;99.90;;;;;;5054171;28;20200;-50
2021/05/23 02:48:47;;;;;;;26.67;17.43;;;11.10;99.90;;;;;;5048212;28;20631;-50
2021/05/23 02:51:13;;;;;;;26.80;17.83;;;11.00;99.90;;;;;;5056010;28;20205;-50
2021/05/23 02:53:40;;;;;;;30.37;17.40;;;10.90;99.90;;;;;;5049169;28;20270;-50
2021/05/23 02:56:07;;;;;;;28.00;17.53;;;11.00;99.90;;;;;;5054116;28;20273;-50
2021/05/23 02:58:34;;;;;;;28.63;18.57;;;11.00;99.90;;;;;;5055422;28;20292;-51
2021/05/23 03:01:01;;;;;;;30.13;18.13;;;11.10;99.90;;;;;;5054129;28;20753;-50
2021/05/23 03:03:28;;;;;;;31.33;17.80;;;11.00;99.90;;;;;;5050727;28;20239;-51
2021/05/23 03:05:54;;;;;;;27.27;18.47;;;11.00;99.90;;;;;;5051837;28;20256;-51
2021/05/23 03:08:21;;;;;;;30.63;17.37;;;11.10;99.90;;;;;;5052514;28;20234;-51
2021/05/23 03:10:54;;;;;;;29.03;18.20;;;11.20;99.90;;;;;;5054052;28;20207;-51
2021/05/23 03:13:21;;;;;;;31.13;18.80;;;11.20;99.90;;;;;;5051206;28;20259;-50
2021/05/23 03:15:48;;;;;;;25.47;17.70;;;11.30;99.90;;;;;;5050828;28;20215;-51
2021/05/23 03:18:15;;;;;;;29.23;18.23;;;11.30;99.90;;;;;;5052506;28;20329;-51
2021/05/23 03:20:43;;;;;;;28.00;19.00;;;11.40;99.90;;;;;;5055623;28;20250;-50
2021/05/23 03:23:10;;;;;;;27.60;17.43;;;11.30;99.90;;;;;;5051558;28;21048;-51
2021/05/23 03:25:37;;;;;;;31.07;18.40;;;11.20;99.90;;;;;;5047451;28;20586;-51
2021/05/23 03:28:05;;;;;;;28.77;18.70;;;11.20;99.90;;;;;;5057809;28;20230;-51
2021/05/23 03:30:36;;;;;;;27.87;18.00;;;11.20;99.90;;;;;;5052003;28;20651;-50
2021/05/23 03:33:04;;;;;;;32.37;19.03;;;11.20;99.90;;;;;;5053422;28;20210;-50
2021/05/23 03:35:31;;;;;;;29.50;18.03;;;11.30;99.90;;;;;;5052164;28;20644;-50
2021/05/23 03:37:58;;;;;;;31.10;19.10;;;11.30;99.90;;;;;;5050999;28;20210;-50
2021/05/23 03:40:25;;;;;;;26.07;16.80;;;11.30;99.90;;;;;;5052010;28;20209;-49
2021/05/23 03:42:53;;;;;;;28.53;17.60;;;11.20;99.90;;;;;;5050477;28;20631;-49
2021/05/23 03:45:22;;;;;;;26.27;18.10;;;11.10;99.90;;;;;;5048743;28;20528;-52
2021/05/23 03:47:49;;;;;;;24.03;16.67;;;11.20;99.90;;;;;;5055693;28;20355;-50
2021/05/23 03:50:19;;;;;;;25.87;16.10;;;11.20;99.90;;;;;;5052779;28;20253;-50
2021/05/23 03:52:48;;;;;;;25.60;16.90;;;11.10;99.90;;;;;;5051965;28;20226;-50
2021/05/23 03:55:15;;;;;;;27.30;16.00;;;11.20;99.90;;;;;;5050356;28;20233;-52
2021/05/23 03:57:42;;;;;;;28.97;16.63;;;11.30;99.90;;;;;;5052633;28;20286;-49
2021/05/23 04:00:10;;;;;;;32.13;16.80;;;11.20;99.90;;;;;;5051211;28;20245;-50
2021/05/23 04:02:37;;;;;;;26.37;15.87;;;11.20;99.90;;;;;;5051448;28;20563;-51
2021/05/23 04:05:04;;;;;;;24.90;15.43;;;11.30;99.90;;;;;;5048425;28;20225;-50
2021/05/23 04:07:31;;;;;;;22.00;14.70;;;11.20;99.90;;;;;;5048579;28;20613;-52
2021/05/23 04:09:59;;;;;;;27.00;17.00;;;11.10;99.90;;;;;;5047048;28;20208;-49
2021/05/23 04:12:32;;;;;;;27.93;16.17;;;11.00;99.90;;;;;;5047800;28;20234;-50
2021/05/23 04:14:59;;;;;;;25.17;16.03;;;11.00;99.90;;;;;;5051063;28;20333;-50
2021/05/23 04:17:28;;;;;;;29.07;16.97;;;10.80;99.90;;;;;;5049489;28;20277;-51
2021/05/23 04:19:56;;;;;;;27.07;17.37;;;10.90;99.90;;;;;;5046343;28;20313;-50
2021/05/23 04:22:23;;;;;;;26.43;16.30;;;11.00;99.90;;;;;;5044458;28;20309;-51
2021/05/23 04:24:50;;;;;;;23.97;16.87;;;10.90;99.90;;;;;;5051260;28;20323;-50
2021/05/23 04:27:17;;;;;;;26.77;15.50;;;11.00;99.90;;;;;;5046335;28;20272;-50
2021/05/23 04:29:44;;;;;;;24.33;16.33;;;10.90;99.90;;;;;;5051474;28;20201;-50
2021/05/23 04:32:11;;;;;;;27.93;16.57;;;10.90;99.90;;;;;;5045255;28;20235;-50
2021/05/23 04:34:38;;;;;;;24.90;16.53;;;10.80;99.90;;;;;;5049510;28;20315;-51
2021/05/23 04:37:06;;;;;;;30.50;17.50;;;10.80;99.90;;;;;;5048913;28;20503;-50
2021/05/23 04:39:33;;;;;;;25.13;17.17;;;10.80;99.90;;;;;;5050249;28;20286;-50
2021/05/23 04:42:01;;;;;;;24.33;15.70;;;10.80;99.90;;;;;;5046378;28;20301;-50
2021/05/23 04:44:48;;;;;;;23.73;15.00;;;10.80;99.90;;;;;;5032657;28;20323;-50
2021/05/23 04:47:16;;;;;;;28.00;15.67;;;10.90;99.90;;;;;;5049301;28;20239;-49
2021/05/23 04:49:43;;;;;;;26.90;15.40;;;10.90;99.90;;;;;;5046669;28;20230;-49
2021/05/23 04:52:11;;;;;;;29.70;15.57;;;11.00;99.90;;;;;;5046734;28;20205;-50
2021/05/23 04:54:40;;;;;;;24.53;14.90;;;10.90;99.90;;;;;;5048150;28;20214;-50
2021/05/23 04:57:08;;;;;;;20.97;14.53;;;10.90;99.90;;;;;;5049290;28;20206;-50
2021/05/23 04:59:35;;;;;;;22.97;12.63;;;10.70;99.90;;;;;;5049351;28;20236;-51
2021/05/23 05:02:03;;;;;;;24.23;13.73;;;10.80;99.90;;;;;;5048315;28;20309;-50
2021/05/23 05:04:30;;;;;;;24.23;12.53;;;10.60;99.90;;;;;;5049723;28;20232;-51
2021/05/23 05:06:57;;;;;;;19.63;11.43;;;10.60;99.90;;;;;;5048251;28;20679;-50
2021/05/23 05:09:25;;;;;;;18.53;9.93;;;10.60;99.90;;;;;;5047583;28;20229;-50
2021/05/23 05:11:52;;;;;;;13.87;9.40;;;10.70;99.90;;;;;;5048419;28;20234;-51
2021/05/23 05:14:18;;;;;;;16.67;8.23;;;10.50;99.90;;;;;;5050001;28;20248;-50
2021/05/23 05:16:45;;;;;;;14.93;8.27;;;10.50;99.90;;;;;;5049186;28;20279;-51
2021/05/23 05:19:12;;;;;;;11.63;7.10;;;10.50;99.90;;;;;;5048204;28;20303;-51
2021/05/23 05:21:40;;;;;;;13.73;7.20;;;10.40;99.90;;;;;;5048179;28;20541;-50
2021/05/23 05:24:07;;;;;;;22.53;8.43;;;10.50;99.90;;;;;;5045650;28;20648;-51
2021/05/23 05:26:34;;;;;;;13.10;6.97;;;10.50;99.90;;;;;;5048581;28;20199;-50
2021/05/23 05:29:01;;;;;;;14.00;7.77;;;10.60;99.90;;;;;;5050314;28;20283;-50
2021/05/23 05:31:28;;;;;;;10.80;6.17;;;10.70;99.90;;;;;;5048279;28;20203;-50
2021/05/23 05:33:55;;;;;;;9.47;5.77;;;10.70;99.90;;;;;;5045640;28;20199;-50
2021/05/23 05:36:21;;;;;;;10.43;5.97;;;10.70;99.90;;;;;;5049537;28;20607;-51
2021/05/23 05:38:49;;;;;;;6.53;4.90;;;10.60;99.90;;;;;;5045314;28;20271;-50
2021/05/23 05:41:17;;;;;;;10.17;5.10;;;10.60;99.90;;;;;;5043545;28;20346;-51
2021/05/23 05:43:44;;;;;;;7.60;4.33;;;10.70;99.90;;;;;;5046547;28;20224;-50
2021/05/23 05:46:11;;;;;;;12.40;5.13;;;10.70;99.90;;;;;;5047275;28;20250;-50
2021/05/23 05:48:38;;;;;;;11.33;4.33;;;10.60;99.90;;;;;;5047395;28;20239;-50
2021/05/23 05:51:05;;;;;;;14.10;5.23;;;10.60;99.90;;;;;;5047847;28;20236;-50
2021/05/23 05:53:32;;;;;;;8.57;4.00;;;10.50;99.90;;;;;;5044301;28;20294;-51
2021/05/23 05:56:00;;;;;;;12.80;4.00;;;10.50;99.90;;;;;;5049667;28;20218;-49
2021/05/23 05:58:27;;;;;;;8.73;3.50;;;10.40;99.90;;;;;;5050352;28;20611;-51
2021/05/23 06:00:54;;;;;;;7.53;3.80;;;10.50;99.90;;;;;;5042980;28;20621;-50
2021/05/23 06:03:21;;;;;;;10.63;3.20;;;10.60;99.90;;;;;;5046997;28;20204;-49
2021/05/23 06:05:47;;;;;;;8.20;3.70;;;10.50;99.90;;;;;;5048424;28;20705;-49
2021/05/23 06:08:15;;;;;;;13.33;3.30;;;10.50;99.90;;;;;;5049945;28;20650;-50
2021/05/23 06:10:41;;;;;;;6.60;2.77;;;10.60;99.90;;;;;;5049656;28;20734;-50
2021/05/23 06:13:08;;;;;;;6.80;2.97;;;10.50;99.90;;;;;;5048216;28;20256;-49
2021/05/23 06:15:35;;;;;;;7.77;2.73;;;10.50;99.90;;;;;;5053958;28;20312;-49
2021/05/23 06:18:02;;;;;;;12.33;3.27;;;10.40;99.90;;;;;;5051030;28;20219;-49
2021/05/23 06:20:29;;;;;;;3.50;2.30;;;10.40;99.90;;;;;;5049430;28;20229;-50
2021/05/23 06:22:56;;;;;;;4.27;2.57;;;10.50;99.90;;;;;;5042890;28;20299;-50
2021/05/23 06:25:23;;;;;;;12.97;3.37;;;10.40;99.90;;;;;;5050835;28;20349;-50
2021/05/23 06:27:50;;;;;;;6.17;2.30;;;10.50;99.90;;;;;;5052253;28;20243;-49
2021/05/23 06:30:17;;;;;;;8.40;3.10;;;10.50;99.90;;;;;;5052299;28;20213;-50
2021/05/23 06:32:45;;;;;;;5.60;2.63;;;10.60;99.90;;;;;;5049646;28;20213;-50
2021/05/23 06:35:13;;;;;;;13.33;2.83;;;10.50;99.90;;;;;;5049838;28;20388;-49
2021/05/23 06:37:40;;;;;;;5.07;2.33;;;10.50;99.90;;;;;;5053595;28;20202;-50
2021/05/23 06:40:08;;;;;;;8.93;2.70;;;10.60;99.90;;;;;;5050750;28;20213;-50
2021/05/23 06:42:35;;;;;;;10.00;2.77;;;10.70;99.90;;;;;;5048469;28;20264;-49
2021/05/23 06:45:03;;;;;;;10.37;2.50;;;10.70;99.90;;;;;;5050456;28;20232;-50
2021/05/23 06:47:30;;;;;;;9.03;2.80;;;10.70;99.90;;;;;;5050126;28;20638;-50
2021/05/23 06:49:57;;;;;;;8.20;3.07;;;10.60;99.90;;;;;;5049953;28;20268;-50
2021/05/23 06:52:26;;;;;;;6.90;3.00;;;10.60;99.90;;;;;;5049075;28;20297;-50
2021/05/23 06:54:52;;;;;;;8.97;2.60;;;10.60;99.90;;;;;;5049989;28;20235;-50
2021/05/23 06:57:19;;;;;;;5.23;2.50;;;10.70;99.90;;;;;;5051088;28;20196;-50
2021/05/23 06:59:46;;;;;;;4.67;2.70;;;10.70;99.90;;;;;;5050330;28;20247;-50
2021/05/23 07:02:13;;;;;;;5.07;2.80;;;10.70;99.90;;;;;;5046526;28;20283;-50
2021/05/23 07:04:40;;;;;;;4.70;3.37;;;10.80;99.90;;;;;;5049765;28;20323;-49
2021/05/23 07:07:07;;;;;;;9.97;4.30;;;10.70;99.90;;;;;;5049534;28;20209;-50
2021/05/23 07:09:34;;;;;;;8.50;3.47;;;11.00;99.90;;;;;;5049734;28;20305;-49
2021/05/23 07:12:02;;;;;;;8.40;3.83;;;11.00;99.90;;;;;;5048414;28;20292;-50
2021/05/23 07:14:29;;;;;;;10.40;3.83;;;11.00;99.90;;;;;;5051424;28;20241;-50
2021/05/23 07:16:55;;;;;;;8.07;4.07;;;11.00;99.90;;;;;;5049633;28;20201;-52
2021/05/23 07:19:22;;;;;;;5.30;3.73;;;10.90;99.90;;;;;;5048851;28;20314;-50
2021/05/23 07:21:49;;;;;;;11.60;4.43;;;10.90;99.90;;;;;;5050194;28;20301;-50
2021/05/23 07:24:16;;;;;;;8.13;3.87;;;10.90;99.90;;;;;;5049555;28;20615;-51
2021/05/23 07:26:43;;;;;;;9.53;4.00;;;10.90;99.90;;;;;;5050798;28;20295;-50
2021/05/23 07:29:10;;;;;;;4.73;3.50;;;10.90;99.90;;;;;;5050468;28;20231;-51
2021/05/23 07:31:37;;;;;;;7.87;3.33;;;11.10;99.90;;;;;;5050041;28;20480;-51
2021/05/23 07:34:04;;;;;;;4.43;3.10;;;11.10;99.90;;;;;;5044728;28;20206;-50
2021/05/23 07:36:31;;;;;;;6.93;2.40;;;11.00;99.90;;;;;;5055227;28;20235;-50
2021/05/23 07:38:58;;;;;;;6.67;3.10;;;10.90;99.90;;;;;;5049681;28;20261;-53
2021/05/23 07:41:25;;;;;;;13.77;2.90;;;11.10;99.90;;;;;;5052320;28;20259;-50
2021/05/23 07:43:51;;;;;;;3.40;2.33;;;11.20;99.90;;;;;;5047088;28;20226;-50
2021/05/23 07:46:18;;;;;;;4.77;2.63;;;11.60;99.90;;;;;;5047349;28;20260;-50
2021/05/23 07:48:45;;;;;;;9.47;2.20;;;11.60;99.90;;;;;;5049302;28;20662;-50
2021/05/23 07:51:13;;;;;;;4.93;1.83;;;11.80;99.90;;;;;;5048787;28;20207;-50
2021/05/23 07:53:40;;;;;;;2.93;1.80;;;12.00;99.90;;;;;;5048705;28;20227;-50
2021/05/23 07:56:07;;;;;;;6.37;1.90;;;12.00;99.90;;;;;;5046634;28;20286;-51
2021/05/23 07:58:34;;;;;;;9.20;1.97;;;12.00;99.90;;;;;;5052379;28;20231;-50
2021/05/23 08:01:00;;;;;;;5.57;1.40;;;12.00;99.90;;;;;;5050472;28;20353;-55
2021/05/23 08:03:27;;;;;;;4.67;2.33;;;11.80;99.90;;;;;;5050986;28;20635;-50
2021/05/23 08:05:55;;;;;;;5.67;1.80;;;11.70;99.90;;;;;;5052594;28;20365;-50
2021/05/23 08:08:22;;;;;;;4.63;1.43;;;11.70;99.90;;;;;;5046221;28;20236;-49
2021/05/23 08:10:49;;;;;;;2.17;1.43;;;11.90;99.90;;;;;;5052045;28;20428;-57
2021/05/23 08:13:16;;;;;;;8.93;1.87;;;11.80;99.90;;;;;;5048901;28;20557;-49
2021/05/23 08:15:44;;;;;;;3.13;1.70;;;11.60;99.90;;;;;;5045802;28;20702;-49
2021/05/23 08:18:15;;;;;;;7.10;1.70;;;12.10;99.90;;;;;;5049142;28;20227;-51
2021/05/23 08:20:48;;;;;;;3.17;1.53;;;12.60;99.90;;;;;;5048474;28;20564;-50
2021/05/23 08:23:14;;;;;;;7.37;2.03;;;12.60;99.90;;;;;;5043219;28;20206;-50
2021/05/23 08:25:41;;;;;;;4.53;1.40;;;12.60;99.90;;;;;;5046008;28;20330;-51
2021/05/23 08:28:08;;;;;;;8.90;1.10;;;12.50;99.90;;;;;;5049646;28;20782;-51
2021/05/23 08:30:35;;;;;;;4.00;1.33;;;12.40;99.90;;;;;;5041986;28;20347;-50
2021/05/23 08:33:02;;;;;;;2.47;1.47;;;12.40;99.90;;;;;;5048605;28;20204;-50
2021/05/23 08:35:29;;;;;;;2.57;1.30;;;12.30;99.90;;;;;;5050127;28;20203;-49
2021/05/23 08:37:55;;;;;;;3.37;1.50;;;12.20;99.90;;;;;;5045763;28;20661;-49
2021/05/23 08:40:22;;;;;;;5.93;1.53;;;12.20;99.90;;;;;;5044394;28;20220;-49
2021/05/23 08:42:49;;;;;;;7.10;1.60;;;12.30;99.90;;;;;;5040200;28;20286;-50
2021/05/23 08:45:16;;;;;;;5.33;1.40;;;12.30;99.90;;;;;;5041107;28;20399;-50
2021/05/23 08:47:45;;;;;;;3.93;1.70;;;12.20;99.90;;;;;;5040956;28;20288;-50
2021/05/23 08:50:17;;;;;;;6.43;1.80;;;12.30;99.90;;;;;;5043090;28;20211;-50
2021/05/23 08:52:44;;;;;;;3.53;1.90;;;12.60;99.90;;;;;;5041027;28;20301;-50
2021/05/23 08:55:15;;;;;;;7.63;2.00;;;12.60;99.90;;;;;;5042470;28;20277;-50
2021/05/23 08:57:42;;;;;;;4.83;2.10;;;12.80;99.90;;;;;;5044332;28;20220;-50
2021/05/23 09:00:10;;;;;;;4.13;2.27;;;12.80;99.90;;;;;;5044402;28;20276;-49
2021/05/23 09:03:08;;;;;;;6.37;2.17;;;12.60;99.90;;;;;;5043206;28;20230;-49
2021/05/23 09:05:43;;;;;;;7.90;2.97;;;12.60;99.90;;;;;;5047294;28;20208;-50
2021/05/23 09:08:21;;;;;;;3.70;2.53;;;12.60;99.90;;;;;;5046627;28;20204;-50
2021/05/23 09:10:50;;;;;;;5.13;2.40;;;12.40;99.90;;;;;;5046503;28;20215;-50
2021/05/23 09:13:29;;;;;;;3.93;2.37;;;12.50;99.90;;;;;;5047982;28;20321;-50
2021/05/23 09:16:11;;;;;;;7.03;2.87;;;12.80;99.90;;;;;;5048659;28;20924;-50
2021/05/23 09:18:52;;;;;;;2.40;2.20;;;12.90;99.90;;;;;;5048944;28;20210;-49
2021/05/23 09:21:29;;;;;;;4.40;2.53;;;12.70;99.90;;;;;;5046457;28;20223;-49
2021/05/23 09:23:59;;;;;;;3.33;2.03;;;12.50;99.90;;;;;;5045926;28;20273;-50
2021/05/23 09:26:29;;;;;;;5.37;1.97;;;12.30;99.90;;;;;;5046818;28;20195;-50
2021/05/23 09:29:04;;;;;;;3.77;1.70;;;12.30;99.90;;;;;;5049688;28;20224;-50
2021/05/23 09:31:31;;;;;;;2.07;1.90;;;12.40;99.90;;;;;;5052850;28;20617;-50
2021/05/23 09:33:58;;;;;;;4.90;1.90;;;12.60;99.90;;;;;;5049403;28;20281;-50
2021/05/23 09:36:26;;;;;;;6.70;2.00;;;12.80;99.90;;;;;;5046397;28;20238;-49
2021/05/23 09:38:58;;;;;;;3.33;1.47;;;12.80;99.90;;;;;;5052561;28;20206;-50
2021/05/23 09:41:30;;;;;;;2.77;1.40;;;12.80;99.90;;;;;;5050851;28;20755;-50
2021/05/23 09:44:27;;;;;;;2.87;1.70;;;12.80;99.90;;;;;;5049789;28;20226;-50
2021/05/23 09:47:04;;;;;;;3.90;1.50;;;12.60;99.90;;;;;;5050661;28;20203;-50
2021/05/23 09:49:43;;;;;;;2.60;1.60;;;12.60;99.90;;;;;;5051511;28;20274;-50
2021/05/23 09:52:15;;;;;;;4.70;1.70;;;12.40;99.90;;;;;;5051514;28;20203;-50
2021/05/23 09:54:50;;;;;;;4.67;1.63;;;12.40;99.90;;;;;;5045649;28;20718;-50
2021/05/23 09:57:18;;;;;;;3.60;1.87;;;12.30;99.90;;;;;;5046663;28;20288;-50
2021/05/23 09:59:45;;;;;;;5.23;1.53;;;12.30;99.90;;;;;;5054403;28;20204;-49
2021/05/23 10:02:13;;;;;;;3.70;1.67;;;12.40;99.90;;;;;;5050580;28;20204;-49
2021/05/23 10:04:41;;;;;;;5.77;1.33;;;12.40;99.90;;;;;;5046707;28;20233;-50
2021/05/23 10:07:11;;;;;;;3.53;1.40;;;12.40;99.90;;;;;;5050663;28;20246;-50
2021/05/23 10:09:39;;;;;;;1.43;1.23;;;12.30;96.70;;;;;;5045090;28;20283;-50
2021/05/23 10:12:08;;;;;;;5.97;1.77;;;12.20;94.60;;;;;;5044231;28;21297;-50
2021/05/23 10:14:36;;;;;;;4.43;1.80;;;12.40;96.00;;;;;;5044399;28;20695;-50
2021/05/23 10:17:07;;;;;;;3.23;1.50;;;12.60;99.40;;;;;;5038583;28;20390;-51
2021/05/23 10:19:35;;;;;;;2.00;1.13;;;12.80;99.20;;;;;;5041054;28;20283;-50
2021/05/23 10:22:05;;;;;;;3.53;1.47;;;12.90;93.50;;;;;;5040397;28;20201;-50
2021/05/23 10:24:53;;;;;;;5.20;1.30;;;13.10;93.20;;;;;;5041807;28;20200;-50
2021/05/23 10:27:23;;;;;;;5.93;1.30;;;13.40;84.80;;;;;;5045548;28;20256;-49
2021/05/23 10:29:53;;;;;;;3.67;1.60;;;13.90;85.40;;;;;;5043998;28;20193;-50
2021/05/23 10:32:25;;;;;;;3.27;1.90;;;13.70;76.60;;;;;;5037446;28;20681;-49
2021/05/23 10:34:55;;;;;;;3.30;1.70;;;13.70;71.60;;;;;;5041572;28;20212;-51
2021/05/23 10:37:29;;;;;;;2.73;1.57;;;14.00;77.60;;;;;;5047163;28;20195;-50
2021/05/23 10:39:58;;;;;;;4.73;2.03;;;14.50;67.40;;;;;;5045611;28;20225;-50
2021/05/23 10:42:28;;;;;;;3.63;1.63;;;14.60;61.70;;;;;;5042491;28;20225;-50
2021/05/23 10:44:56;;;;;;;1.57;1.10;;;14.30;64.40;;;;;;5045777;28;20638;-50
2021/05/23 10:47:29;;;;;;;2.57;1.20;;;14.40;58.90;;;;;;5043594;28;20208;-49
2021/05/23 10:50:08;;;;;;;4.77;1.40;;;14.50;40.70;;;;;;5046354;28;20283;-49
2021/05/23 10:52:37;;;;;;;2.47;1.40;;;14.70;50.50;;;;;;5046395;28;20824;-49
2021/05/23 10:55:14;;;;;;;4.00;1.27;;;15.10;44.50;;;;;;5048076;28;20236;-50
2021/05/23 10:57:50;;;;;;;2.93;1.37;;;15.10;36.60;;;;;;5050681;28;20243;-49
2021/05/23 11:00:32;;;;;;;2.03;0.90;;;14.90;43.30;;;;;;5052820;28;20749;-49
2021/05/23 11:03:14;;;;;;;3.10;1.27;;;14.60;45.40;;;;;;5050622;28;20214;-50
2021/05/23 11:05:41;;;;;;;2.13;1.40;;;14.30;53.40;;;;;;5050054;28;20213;-50
2021/05/23 11:08:12;;;;;;;5.83;1.30;;;14.00;50.80;;;;;;5049274;28;20240;-50
2021/05/23 11:10:45;;;;;;;1.77;1.10;;;13.90;49.50;;;;;;5049901;28;20605;-49
2021/05/23 11:13:33;;;;;;;4.50;1.10;;;13.80;54.20;;;;;;5053309;28;20539;-52
2021/05/23 11:16:19;;;;;;;2.23;1.10;;;14.00;38.10;;;;;;5047748;28;20315;-49
2021/05/23 11:18:47;;;;;;;2.23;1.20;;;14.40;37.00;;;;;;5048877;28;20225;-52
2021/05/23 11:21:16;;;;;;;1.73;1.40;;;14.80;35.50;;;;;;5048658;28;20339;-50
2021/05/23 11:23:50;;;;;;;3.17;1.10;;;15.40;33.00;;;;;;5046753;28;20300;-50
2021/05/23 11:26:18;;;;;;;4.30;1.33;;;15.60;33.00;;;;;;5045192;28;20281;-50
2021/05/23 11:28:50;;;;;;;3.37;1.10;;;15.90;38.90;;;;;;5052037;28;20308;-50
2021/05/23 11:31:20;;;;;;;1.43;0.90;;;15.60;27.80;;;;;;5052607;28;20308;-50
2021/05/23 11:33:50;;;;;;;4.83;1.00;;;15.80;26.40;;;;;;5049092;28;21089;-51
2021/05/23 11:36:19;;;;;;;3.97;1.00;;;16.00;28.60;;;;;;5050694;28;20198;-51
2021/05/23 11:38:46;;;;;;;4.90;1.23;;;16.30;27.90;;;;;;5049984;28;20233;-49
2021/05/23 11:41:13;;;;;;;3.63;1.00;;;16.10;23.00;;;;;;5050657;28;20650;-52
2021/05/23 11:43:40;;;;;;;3.87;1.10;;;15.90;24.50;;;;;;5049087;28;20286;-52
2021/05/23 11:46:07;;;;;;;2.23;0.80;;;15.90;28.00;;;;;;5048639;28;20203;-49
2021/05/23 11:48:40;;;;;;;5.43;1.10;;;16.20;29.60;;;;;;5047157;28;20598;-50
2021/05/23 11:51:11;;;;;;;1.90;1.03;;;15.70;21.00;;;;;;5044865;28;20214;-50
2021/05/23 11:53:39;;;;;;;1.77;0.80;;;15.50;17.20;;;;;;5044948;28;20356;-51
2021/05/23 11:56:07;;;;;;;3.60;0.83;;;15.40;20.20;;;;;;5046610;28;21935;-50
2021/05/23 11:58:35;;;;;;;1.97;1.10;;;16.10;25.20;;;;;;5050225;28;20258;-50
2021/05/23 12:01:30;;;;;;;1.60;0.90;;;16.50;24.90;;;;;;5049091;28;20308;-50
2021/05/23 12:04:06;;;;;;;2.13;0.97;;;15.90;23.60;;;;;;5046917;28;20264;-53
2021/05/23 12:06:39;;;;;;;2.50;1.30;;;15.30;23.60;;;;;;5048900;28;20253;-50
2021/05/23 12:09:12;;;;;;;4.87;1.20;;;15.20;25.90;;;;;;5048532;28;20233;-50
2021/05/23 12:11:52;;;;;;;1.80;1.00;;;15.10;25.00;;;;;;5051233;28;20730;-51
2021/05/23 12:14:19;;;;;;;2.10;1.30;;;15.00;28.30;;;;;;5044794;28;20215;-50
2021/05/23 12:16:48;;;;;;;2.10;1.07;;;14.90;29.30;;;;;;5048800;28;20253;-51
2021/05/23 12:19:15;;;;;;;2.60;1.03;;;14.70;29.30;;;;;;5050255;28;20202;-50
2021/05/23 12:21:42;;;;;;;2.23;1.33;;;14.50;33.90;;;;;;5051148;28;20701;-50
2021/05/23 12:24:10;;;;;;;2.07;1.10;;;14.50;36.30;;;;;;5050112;28;21250;-51
2021/05/23 12:26:41;;;;;;;1.67;1.20;;;14.80;39.70;;;;;;5046964;28;20328;-50
2021/05/23 12:29:07;;;;;;;3.90;1.50;;;14.90;38.70;;;;;;5051170;28;20260;-51
2021/05/23 12:31:35;;;;;;;2.83;1.07;;;15.10;42.70;;;;;;5050703;28;20208;-50
2021/05/23 12:34:05;;;;;;;3.10;1.13;;;15.20;33.80;;;;;;5049252;28;20643;-52
2021/05/23 12:36:32;;;;;;;5.73;1.73;;;15.30;30.60;;;;;;5047458;28;20827;-51
2021/05/23 12:39:21;;;;;;;3.33;1.20;;;15.40;30.00;;;;;;5048393;28;20209;-51
2021/05/23 12:41:52;;;;;;;1.87;1.13;;;15.10;32.40;;;;;;5049017;28;20220;-52
2021/05/23 12:44:24;;;;;;;1.30;1.13;;;15.20;34.90;;;;;;5052235;28;20196;-51
2021/05/23 12:46:52;;;;;;;4.50;1.57;;;15.30;35.00;;;;;;5048013;28;20625;-52
2021/05/23 12:49:24;;;;;;;1.90;0.97;;;15.80;35.90;;;;;;5048659;28;20220;-51